createdAt,value
2018-10-09T11:33:31.845Z,12.60
2018-10-09T11:38:43.694Z,17.40
2018-10-09T11:43:55.083Z,17.70
2018-10-09T11:48:55.609Z,18.30
2018-10-09T11:53:52.423Z,19.10
2018-10-09T11:58:53.029Z,19.80
2018-10-09T12:03:48.854Z,20.30
2018-10-09T12:08:44.096Z,20.60
2018-10-09T12:13:37.533Z,21.00
2018-10-09T12:18:33.299Z,21.40
2018-10-09T12:23:28.406Z,22.10
2018-10-09T12:28:22.438Z,22.40
2018-10-09T12:33:16.711Z,22.50
2018-10-09T12:38:08.345Z,23.00
2018-10-09T12:43:00.826Z,23.30
2018-10-09T12:47:52.936Z,23.50
2018-10-09T12:52:44.761Z,23.60
2018-10-09T12:57:39.849Z,23.50
2018-10-09T13:02:34.619Z,23.40
2018-10-09T13:07:34.888Z,23.10
2018-10-09T13:12:29.229Z,23.10
2018-10-09T13:17:23.755Z,22.90
2018-10-09T13:22:19.664Z,22.70
2018-10-09T13:27:15.278Z,22.80
2018-10-09T13:32:10.450Z,22.80
2018-10-09T13:37:06.980Z,22.70
2018-10-09T13:42:01.656Z,22.60
2018-10-09T13:46:56.303Z,22.80
2018-10-09T13:51:50.819Z,22.80
2018-10-09T13:56:45.430Z,22.90
2018-10-09T14:01:40.591Z,22.80
2018-10-09T14:06:34.956Z,22.60
2018-10-09T14:11:32.200Z,22.50
2018-10-09T14:16:26.503Z,22.60
2018-10-09T14:21:21.076Z,22.70
2018-10-09T14:26:15.345Z,22.40
2018-10-09T14:31:12.246Z,22.10
2018-10-09T14:36:04.583Z,21.80
2018-10-09T14:41:02.033Z,21.40
2018-10-09T14:45:58.276Z,21.20
2018-10-09T14:50:54.883Z,21.10
2018-10-09T14:55:51.858Z,20.90
2018-10-09T15:00:50.379Z,20.70
2018-10-09T15:05:49.463Z,20.60
2018-10-09T15:10:47.614Z,20.40
2018-10-09T15:15:46.523Z,20.30
2018-10-09T15:18:52.633Z,20.20
2018-10-09T15:23:55.911Z,20.20
2018-10-09T15:29:09.795Z,20.10
2018-10-09T15:34:15.779Z,19.90
2018-10-09T15:39:23.503Z,19.90
2018-10-09T15:44:31.171Z,19.90
2018-10-09T15:49:37.404Z,19.80
2018-10-09T15:54:46.017Z,19.80
2018-10-09T15:59:50.949Z,19.80
2018-10-09T16:04:58.949Z,19.70
2018-10-09T16:10:13.559Z,19.60
2018-10-09T16:15:18.307Z,19.40
2018-10-09T16:20:33.952Z,19.20
2018-10-09T16:25:46.628Z,19.00
2018-10-09T16:31:00.576Z,18.80
2018-10-09T16:36:17.658Z,18.60
2018-10-09T16:41:34.886Z,18.40
2018-10-09T16:52:08.547Z,18.20
2018-10-09T17:23:45.558Z,17.80
